sensor_id;sensor_type;location;lat;lon;timestamp;temperature;humidity
2999;DHT22;1509;51.964;7.628;2023-06-22T00:00:56;22.10;99.90
2999;DHT22;1509;51.964;7.628;2023-06-22T00:03:23;22.00;99.90
2999;DHT22;1509;51.964;7.628;2023-06-22T00:05:52;21.90;99.90
2999;DHT22;1509;51.964;7.628;2023-06-22T00:08:19;21.90;99.90
2999;DHT22;1509;51.964;7.628;2023-06-22T00:10:45;21.80;99.90
2999;DHT22;1509;51.964;7.628;2023-06-22T00:13:12;21.80;99.90
2999;DHT22;1509;51.964;7.628;2023-06-22T00:15:39;21.70;99.90
2999;DHT22;1509;51.964;7.628;2023-06-22T00:18:09;21.70;99.90
2999;DHT22;1509;51.964;7.628;2023-06-22T00:20:35;21.60;99.90
2999;DHT22;1509;51.964;7.628;2023-06-22T00:23:05;21.60;99.90
2999;DHT22;1509;51.964;7.628;2023-06-22T00:25:40;21.50;99.90
2999;DHT22;1509;51.964;7.628;2023-06-22T00:28:06;21.50;99.90
2999;DHT22;1509;51.964;7.628;2023-06-22T00:30:33;21.50;99.90
2999;DHT22;1509;51.964;7.628;2023-06-22T00:32:59;21.40;99.90
2999;DHT22;1509;51.964;7.628;2023-06-22T00:35:26;21.40;99.90
2999;DHT22;1509;51.964;7.628;2023-06-22T00:37:56;21.10;99.90
2999;DHT22;1509;51.964;7.628;2023-06-22T00:40:29;21.40;99.90
2999;DHT22;1509;51.964;7.628;2023-06-22T00:42:55;20.90;99.90
2999;DHT22;1509;51.964;7.628;2023-06-22T00:45:24;21.30;99.90
2999;DHT22;1509;51.964;7.628;2023-06-22T00:47:56;21.30;99.90
2999;DHT22;1509;51.964;7.628;2023-06-22T00:50:23;21.30;99.90
2999;DHT22;1509;51.964;7.628;2023-06-22T00:52:52;21.20;99.90
2999;DHT22;1509;51.964;7.628;2023-06-22T00:55:19;21.20;99.90
2999;DHT22;1509;51.964;7.628;2023-06-22T00:57:46;20.90;99.90
2999;DHT22;1509;51.964;7.628;2023-06-22T01:00:13;21.10;99.90
2999;DHT22;1509;51.964;7.628;2023-06-22T01:02:40;21.10;99.90
2999;DHT22;1509;51.964;7.628;2023-06-22T01:05:07;20.80;99.90
2999;DHT22;1509;51.964;7.628;2023-06-22T01:07:46;21.00;99.90
2999;DHT22;1509;51.964;7.628;2023-06-22T01:13:18;21.00;99.90
2999;DHT22;1509;51.964;7.628;2023-06-22T01:16:17;21.00;99.90
2999;DHT22;1509;51.964;7.628;2023-06-22T01:18:44;21.00;99.90
2999;DHT22;1509;51.964;7.628;2023-06-22T01:21:16;21.00;99.90
2999;DHT22;1509;51.964;7.628;2023-06-22T01:23:58;20.80;99.90
2999;DHT22;1509;51.964;7.628;2023-06-22T01:26:43;20.90;99.90
2999;DHT22;1509;51.964;7.628;2023-06-22T01:29:15;20.80;99.90
2999;DHT22;1509;51.964;7.628;2023-06-22T01:31:42;20.90;99.90
2999;DHT22;1509;51.964;7.628;2023-06-22T01:34:09;20.90;99.90
2999;DHT22;1509;51.964;7.628;2023-06-22T01:36:36;20.80;99.90
2999;DHT22;1509;51.964;7.628;2023-06-22T01:39:05;20.80;99.90
2999;DHT22;1509;51.964;7.628;2023-06-22T01:41:36;20.80;99.90
2999;DHT22;1509;51.964;7.628;2023-06-22T01:44:05;20.80;99.90
2999;DHT22;1509;51.964;7.628;2023-06-22T01:46:34;20.70;99.90
2999;DHT22;1509;51.964;7.628;2023-06-22T01:49:00;20.70;99.90
2999;DHT22;1509;51.964;7.628;2023-06-22T01:51:26;20.70;99.90
2999;DHT22;1509;51.964;7.628;2023-06-22T01:53:52;20.70;99.90
2999;DHT22;1509;51.964;7.628;2023-06-22T01:56:17;20.40;99.90
2999;DHT22;1509;51.964;7.628;2023-06-22T01:58:51;20.70;99.90
2999;DHT22;1509;51.964;7.628;2023-06-22T02:01:26;20.80;99.90
2999;DHT22;1509;51.964;7.628;2023-06-22T02:04:18;20.80;99.90
2999;DHT22;1509;51.964;7.628;2023-06-22T02:06:46;20.80;99.90
2999;DHT22;1509;51.964;7.628;2023-06-22T02:09:16;20.70;99.90
2999;DHT22;1509;51.964;7.628;2023-06-22T02:11:44;20.60;99.90
2999;DHT22;1509;51.964;7.628;2023-06-22T02:14:10;20.60;99.90
2999;DHT22;1509;51.964;7.628;2023-06-22T02:16:37;20.60;99.90
2999;DHT22;1509;51.964;7.628;2023-06-22T02:19:03;20.60;99.90
2999;DHT22;1509;51.964;7.628;2023-06-22T02:21:29;20.50;99.90
2999;DHT22;1509;51.964;7.628;2023-06-22T02:23:56;20.50;99.90
2999;DHT22;1509;51.964;7.628;2023-06-22T02:26:22;20.40;99.90
2999;DHT22;1509;51.964;7.628;2023-06-22T02:28:49;20.60;99.90
2999;DHT22;1509;51.964;7.628;2023-06-22T02:31:14;20.50;99.90
2999;DHT22;1509;51.964;7.628;2023-06-22T02:33:40;20.50;99.90
2999;DHT22;1509;51.964;7.628;2023-06-22T02:36:05;20.50;99.90
2999;DHT22;1509;51.964;7.628;2023-06-22T02:38:35;20.50;99.90
2999;DHT22;1509;51.964;7.628;2023-06-22T02:41:02;20.50;99.90
2999;DHT22;1509;51.964;7.628;2023-06-22T02:43:27;20.40;99.90
2999;DHT22;1509;51.964;7.628;2023-06-22T02:45:53;20.40;99.90
2999;DHT22;1509;51.964;7.628;2023-06-22T02:48:19;20.50;99.90
2999;DHT22;1509;51.964;7.628;2023-06-22T02:50:45;20.40;99.90
2999;DHT22;1509;51.964;7.628;2023-06-22T02:53:10;20.40;99.90
2999;DHT22;1509;51.964;7.628;2023-06-22T02:55:36;20.40;99.90
2999;DHT22;1509;51.964;7.628;2023-06-22T02:58:02;20.30;99.90
2999;DHT22;1509;51.964;7.628;2023-06-22T03:00:30;20.30;99.90
2999;DHT22;1509;51.964;7.628;2023-06-22T03:02:56;20.30;99.90
2999;DHT22;1509;51.964;7.628;2023-06-22T03:05:22;20.30;99.90
2999;DHT22;1509;51.964;7.628;2023-06-22T03:07:48;20.20;99.90
2999;DHT22;1509;51.964;7.628;2023-06-22T03:10:15;20.20;99.90
2999;DHT22;1509;51.964;7.628;2023-06-22T03:12:42;20.20;99.90
2999;DHT22;1509;51.964;7.628;2023-06-22T03:15:12;20.20;99.90
2999;DHT22;1509;51.964;7.628;2023-06-22T03:17:39;20.20;99.90
2999;DHT22;1509;51.964;7.628;2023-06-22T03:20:05;20.20;99.90
2999;DHT22;1509;51.964;7.628;2023-06-22T03:22:36;20.20;99.90
2999;DHT22;1509;51.964;7.628;2023-06-22T03:25:02;20.10;99.90
2999;DHT22;1509;51.964;7.628;2023-06-22T03:27:28;20.10;99.90
2999;DHT22;1509;51.964;7.628;2023-06-22T03:29:53;20.10;99.90
2999;DHT22;1509;51.964;7.628;2023-06-22T03:32:19;19.90;99.90
2999;DHT22;1509;51.964;7.628;2023-06-22T03:34:44;20.20;99.90
2999;DHT22;1509;51.964;7.628;2023-06-22T03:37:15;20.10;99.90
2999;DHT22;1509;51.964;7.628;2023-06-22T03:39:41;20.00;99.90
2999;DHT22;1509;51.964;7.628;2023-06-22T03:42:07;20.00;99.90
2999;DHT22;1509;51.964;7.628;2023-06-22T03:44:34;20.00;99.90
2999;DHT22;1509;51.964;7.628;2023-06-22T03:47:02;19.90;99.90
2999;DHT22;1509;51.964;7.628;2023-06-22T03:49:28;19.90;99.90
2999;DHT22;1509;51.964;7.628;2023-06-22T03:51:53;19.80;99.90
2999;DHT22;1509;51.964;7.628;2023-06-22T03:54:19;19.80;99.90
2999;DHT22;1509;51.964;7.628;2023-06-22T03:56:44;19.80;99.90
2999;DHT22;1509;51.964;7.628;2023-06-22T03:59:10;19.70;99.90
2999;DHT22;1509;51.964;7.628;2023-06-22T04:01:35;19.90;99.90
2999;DHT22;1509;51.964;7.628;2023-06-22T04:04:02;19.90;99.90
2999;DHT22;1509;51.964;7.628;2023-06-22T04:06:27;19.80;99.90
2999;DHT22;1509;51.964;7.628;2023-06-22T04:08:53;19.70;99.90
2999;DHT22;1509;51.964;7.628;2023-06-22T04:11:18;20.00;99.90
2999;DHT22;1509;51.964;7.628;2023-06-22T04:13:44;19.90;99.90
2999;DHT22;1509;51.964;7.628;2023-06-22T04:16:14;19.90;99.90
2999;DHT22;1509;51.964;7.628;2023-06-22T04:18:39;19.90;99.90
2999;DHT22;1509;51.964;7.628;2023-06-22T04:21:09;20.00;99.90
2999;DHT22;1509;51.964;7.628;2023-06-22T04:23:35;19.90;99.90
2999;DHT22;1509;51.964;7.628;2023-06-22T04:26:00;19.90;99.90
2999;DHT22;1509;51.964;7.628;2023-06-22T04:28:26;20.00;99.90
2999;DHT22;1509;51.964;7.628;2023-06-22T04:30:52;20.00;99.90
2999;DHT22;1509;51.964;7.628;2023-06-22T04:33:17;20.00;99.90
2999;DHT22;1509;51.964;7.628;2023-06-22T04:35:46;20.00;99.90
2999;DHT22;1509;51.964;7.628;2023-06-22T04:38:14;19.90;99.90
2999;DHT22;1509;51.964;7.628;2023-06-22T04:40:40;20.10;99.90
2999;DHT22;1509;51.964;7.628;2023-06-22T04:43:06;20.00;99.90
2999;DHT22;1509;51.964;7.628;2023-06-22T04:45:34;20.10;99.90
2999;DHT22;1509;51.964;7.628;2023-06-22T04:48:03;20.10;99.90
2999;DHT22;1509;51.964;7.628;2023-06-22T04:50:29;20.20;99.90
2999;DHT22;1509;51.964;7.628;2023-06-22T04:52:55;20.20;99.90
2999;DHT22;1509;51.964;7.628;2023-06-22T04:55:20;20.20;99.90
2999;DHT22;1509;51.964;7.628;2023-06-22T04:57:47;20.20;99.90
2999;DHT22;1509;51.964;7.628;2023-06-22T05:00:17;20.30;99.90
2999;DHT22;1509;51.964;7.628;2023-06-22T05:02:44;20.40;99.90
2999;DHT22;1509;51.964;7.628;2023-06-22T05:05:11;20.40;99.90
2999;DHT22;1509;51.964;7.628;2023-06-22T05:07:43;20.50;99.90
2999;DHT22;1509;51.964;7.628;2023-06-22T05:10:10;20.50;99.90
2999;DHT22;1509;51.964;7.628;2023-06-22T05:12:37;20.50;99.90
2999;DHT22;1509;51.964;7.628;2023-06-22T05:15:03;20.60;99.90
2999;DHT22;1509;51.964;7.628;2023-06-22T05:17:29;20.70;99.90
2999;DHT22;1509;51.964;7.628;2023-06-22T05:19:54;20.80;99.90
2999;DHT22;1509;51.964;7.628;2023-06-22T05:22:21;20.80;99.90
2999;DHT22;1509;51.964;7.628;2023-06-22T05:24:46;20.90;99.90
2999;DHT22;1509;51.964;7.628;2023-06-22T05:27:13;20.90;99.90
2999;DHT22;1509;51.964;7.628;2023-06-22T05:29:39;21.00;99.90
2999;DHT22;1509;51.964;7.628;2023-06-22T05:32:05;21.10;99.90
2999;DHT22;1509;51.964;7.628;2023-06-22T05:34:31;21.20;99.90
2999;DHT22;1509;51.964;7.628;2023-06-22T05:36:57;21.30;99.90
2999;DHT22;1509;51.964;7.628;2023-06-22T05:39:24;21.30;99.90
2999;DHT22;1509;51.964;7.628;2023-06-22T05:41:50;21.40;99.90
2999;DHT22;1509;51.964;7.628;2023-06-22T05:44:16;21.40;99.90
2999;DHT22;1509;51.964;7.628;2023-06-22T05:46:43;21.50;99.90
2999;DHT22;1509;51.964;7.628;2023-06-22T05:49:11;21.50;99.90
2999;DHT22;1509;51.964;7.628;2023-06-22T05:51:36;21.60;99.90
2999;DHT22;1509;51.964;7.628;2023-06-22T05:54:02;21.70;99.90
2999;DHT22;1509;51.964;7.628;2023-06-22T05:56:28;21.90;99.90
2999;DHT22;1509;51.964;7.628;2023-06-22T05:58:53;22.10;99.90
2999;DHT22;1509;51.964;7.628;2023-06-22T06:01:19;22.30;99.90
2999;DHT22;1509;51.964;7.628;2023-06-22T06:03:45;22.40;99.90
2999;DHT22;1509;51.964;7.628;2023-06-22T06:06:11;22.60;99.90
2999;DHT22;1509;51.964;7.628;2023-06-22T06:08:38;22.70;99.90
2999;DHT22;1509;51.964;7.628;2023-06-22T06:11:04;22.70;99.90
2999;DHT22;1509;51.964;7.628;2023-06-22T06:13:29;22.70;99.90
2999;DHT22;1509;51.964;7.628;2023-06-22T06:15:56;22.70;99.90
2999;DHT22;1509;51.964;7.628;2023-06-22T06:18:23;22.80;99.90
2999;DHT22;1509;51.964;7.628;2023-06-22T06:20:48;22.80;99.90
2999;DHT22;1509;51.964;7.628;2023-06-22T06:23:14;22.80;99.90
2999;DHT22;1509;51.964;7.628;2023-06-22T06:25:40;22.80;99.90
2999;DHT22;1509;51.964;7.628;2023-06-22T06:28:06;22.90;99.90
2999;DHT22;1509;51.964;7.628;2023-06-22T06:30:32;22.90;99.90
2999;DHT22;1509;51.964;7.628;2023-06-22T06:32:57;22.90;99.90
2999;DHT22;1509;51.964;7.628;2023-06-22T06:35:23;22.90;99.90
2999;DHT22;1509;51.964;7.628;2023-06-22T06:37:50;22.90;99.90
2999;DHT22;1509;51.964;7.628;2023-06-22T06:40:16;22.90;99.90
2999;DHT22;1509;51.964;7.628;2023-06-22T06:42:44;22.90;99.90
2999;DHT22;1509;51.964;7.628;2023-06-22T06:45:20;23.00;99.90
2999;DHT22;1509;51.964;7.628;2023-06-22T06:47:48;23.00;99.90
2999;DHT22;1509;51.964;7.628;2023-06-22T06:50:14;23.00;99.90
2999;DHT22;1509;51.964;7.628;2023-06-22T06:52:40;23.00;99.90
2999;DHT22;1509;51.964;7.628;2023-06-22T06:55:08;23.10;99.90
2999;DHT22;1509;51.964;7.628;2023-06-22T06:57:40;23.00;99.90
2999;DHT22;1509;51.964;7.628;2023-06-22T07:00:10;23.10;99.90
2999;DHT22;1509;51.964;7.628;2023-06-22T07:02:40;23.00;99.90
2999;DHT22;1509;51.964;7.628;2023-06-22T07:05:07;23.00;99.90
2999;DHT22;1509;51.964;7.628;2023-06-22T07:07:33;23.00;99.90
2999;DHT22;1509;51.964;7.628;2023-06-22T07:09:59;23.10;99.90
2999;DHT22;1509;51.964;7.628;2023-06-22T07:12:25;23.30;99.90
2999;DHT22;1509;51.964;7.628;2023-06-22T07:14:52;23.40;99.90
2999;DHT22;1509;51.964;7.628;2023-06-22T07:17:18;23.40;99.90
2999;DHT22;1509;51.964;7.628;2023-06-22T07:19:44;23.40;99.90
2999;DHT22;1509;51.964;7.628;2023-06-22T07:22:09;23.40;99.90
2999;DHT22;1509;51.964;7.628;2023-06-22T07:24:35;23.50;99.90
2999;DHT22;1509;51.964;7.628;2023-06-22T07:27:01;23.50;99.90
2999;DHT22;1509;51.964;7.628;2023-06-22T07:29:27;23.60;99.90
2999;DHT22;1509;51.964;7.628;2023-06-22T07:31:53;23.50;99.90
2999;DHT22;1509;51.964;7.628;2023-06-22T07:34:21;23.50;99.90
2999;DHT22;1509;51.964;7.628;2023-06-22T07:36:47;23.60;99.90
2999;DHT22;1509;51.964;7.628;2023-06-22T07:39:13;23.60;99.90
2999;DHT22;1509;51.964;7.628;2023-06-22T07:41:39;23.60;99.90
2999;DHT22;1509;51.964;7.628;2023-06-22T07:44:06;23.60;99.90
2999;DHT22;1509;51.964;7.628;2023-06-22T07:46:32;23.60;99.90
2999;DHT22;1509;51.964;7.628;2023-06-22T07:48:58;23.70;99.90
2999;DHT22;1509;51.964;7.628;2023-06-22T07:51:25;23.70;99.90
2999;DHT22;1509;51.964;7.628;2023-06-22T07:53:51;23.60;99.90
2999;DHT22;1509;51.964;7.628;2023-06-22T07:56:16;23.60;99.90
2999;DHT22;1509;51.964;7.628;2023-06-22T07:58:45;23.50;99.90
2999;DHT22;1509;51.964;7.628;2023-06-22T08:01:12;23.50;99.90
2999;DHT22;1509;51.964;7.628;2023-06-22T08:03:38;23.60;99.90
2999;DHT22;1509;51.964;7.628;2023-06-22T08:06:05;23.60;99.90
2999;DHT22;1509;51.964;7.628;2023-06-22T08:08:33;23.50;99.90
2999;DHT22;1509;51.964;7.628;2023-06-22T08:10:59;23.60;99.90
2999;DHT22;1509;51.964;7.628;2023-06-22T08:13:25;23.70;99.90
2999;DHT22;1509;51.964;7.628;2023-06-22T08:15:50;23.70;99.90
2999;DHT22;1509;51.964;7.628;2023-06-22T08:18:16;23.70;99.90
2999;DHT22;1509;51.964;7.628;2023-06-22T08:20:42;23.70;99.90
2999;DHT22;1509;51.964;7.628;2023-06-22T08:23:08;23.70;99.90
2999;DHT22;1509;51.964;7.628;2023-06-22T08:25:34;23.70;99.90
2999;DHT22;1509;51.964;7.628;2023-06-22T08:28:01;23.70;99.90
2999;DHT22;1509;51.964;7.628;2023-06-22T08:30:27;23.90;99.90
2999;DHT22;1509;51.964;7.628;2023-06-22T08:32:52;24.00;99.90
2999;DHT22;1509;51.964;7.628;2023-06-22T08:35:19;24.10;99.90
2999;DHT22;1509;51.964;7.628;2023-06-22T08:37:46;24.20;99.90
2999;DHT22;1509;51.964;7.628;2023-06-22T08:40:18;24.30;99.90
2999;DHT22;1509;51.964;7.628;2023-06-22T08:42:46;24.50;99.90
2999;DHT22;1509;51.964;7.628;2023-06-22T08:45:12;24.40;99.90
2999;DHT22;1509;51.964;7.628;2023-06-22T08:47:39;24.50;99.90
2999;DHT22;1509;51.964;7.628;2023-06-22T08:50:06;24.50;99.90
2999;DHT22;1509;51.964;7.628;2023-06-22T08:52:33;24.60;99.90
2999;DHT22;1509;51.964;7.628;2023-06-22T08:54:59;24.80;99.90
2999;DHT22;1509;51.964;7.628;2023-06-22T08:57:24;25.00;99.90
2999;DHT22;1509;51.964;7.628;2023-06-22T08:59:50;25.20;99.90
2999;DHT22;1509;51.964;7.628;2023-06-22T09:02:17;25.50;99.90
2999;DHT22;1509;51.964;7.628;2023-06-22T09:04:46;25.60;99.90
2999;DHT22;1509;51.964;7.628;2023-06-22T09:07:12;25.60;99.90
2999;DHT22;1509;51.964;7.628;2023-06-22T09:09:37;25.50;99.90
2999;DHT22;1509;51.964;7.628;2023-06-22T09:12:03;25.50;99.90
2999;DHT22;1509;51.964;7.628;2023-06-22T09:14:29;25.50;99.90
2999;DHT22;1509;51.964;7.628;2023-06-22T09:16:55;25.40;99.90
2999;DHT22;1509;51.964;7.628;2023-06-22T09:19:21;25.40;99.90
2999;DHT22;1509;51.964;7.628;2023-06-22T09:21:47;25.50;99.90
2999;DHT22;1509;51.964;7.628;2023-06-22T09:24:13;25.70;99.90
2999;DHT22;1509;51.964;7.628;2023-06-22T09:26:39;25.80;99.90
2999;DHT22;1509;51.964;7.628;2023-06-22T09:29:07;25.80;99.90
2999;DHT22;1509;51.964;7.628;2023-06-22T09:31:33;25.90;99.90
2999;DHT22;1509;51.964;7.628;2023-06-22T09:33:59;26.10;99.90
2999;DHT22;1509;51.964;7.628;2023-06-22T09:36:24;26.80;99.90
2999;DHT22;1509;51.964;7.628;2023-06-22T09:38:50;27.70;99.90
2999;DHT22;1509;51.964;7.628;2023-06-22T09:41:33;28.20;99.90
2999;DHT22;1509;51.964;7.628;2023-06-22T09:43:59;28.60;99.90
2999;DHT22;1509;51.964;7.628;2023-06-22T09:46:25;29.80;99.90
2999;DHT22;1509;51.964;7.628;2023-06-22T09:48:51;30.30;99.90
2999;DHT22;1509;51.964;7.628;2023-06-22T09:51:16;30.00;99.90
2999;DHT22;1509;51.964;7.628;2023-06-22T09:53:44;29.30;99.90
2999;DHT22;1509;51.964;7.628;2023-06-22T09:56:09;28.90;99.90
2999;DHT22;1509;51.964;7.628;2023-06-22T09:58:43;28.70;99.90
2999;DHT22;1509;51.964;7.628;2023-06-22T10:01:09;28.50;99.90
2999;DHT22;1509;51.964;7.628;2023-06-22T10:03:36;28.50;99.90
2999;DHT22;1509;51.964;7.628;2023-06-22T10:06:02;28.30;99.90
2999;DHT22;1509;51.964;7.628;2023-06-22T10:08:28;28.30;99.90
2999;DHT22;1509;51.964;7.628;2023-06-22T10:10:54;28.10;99.90
2999;DHT22;1509;51.964;7.628;2023-06-22T10:13:19;28.00;99.90
2999;DHT22;1509;51.964;7.628;2023-06-22T10:15:45;27.90;99.90
2999;DHT22;1509;51.964;7.628;2023-06-22T10:18:15;27.90;99.90
2999;DHT22;1509;51.964;7.628;2023-06-22T10:20:42;27.90;99.90
2999;DHT22;1509;51.964;7.628;2023-06-22T10:23:07;27.70;99.90
2999;DHT22;1509;51.964;7.628;2023-06-22T10:25:33;27.70;99.90
2999;DHT22;1509;51.964;7.628;2023-06-22T10:27:59;27.70;99.90
2999;DHT22;1509;51.964;7.628;2023-06-22T10:30:24;27.60;99.90
2999;DHT22;1509;51.964;7.628;2023-06-22T10:32:50;27.70;99.90
2999;DHT22;1509;51.964;7.628;2023-06-22T10:35:16;27.80;99.90
2999;DHT22;1509;51.964;7.628;2023-06-22T10:37:43;27.90;99.90
2999;DHT22;1509;51.964;7.628;2023-06-22T10:40:10;28.00;99.90
2999;DHT22;1509;51.964;7.628;2023-06-22T10:42:35;28.10;99.90
2999;DHT22;1509;51.964;7.628;2023-06-22T10:45:01;28.20;99.90
2999;DHT22;1509;51.964;7.628;2023-06-22T10:47:28;28.40;99.90
2999;DHT22;1509;51.964;7.628;2023-06-22T10:49:53;28.50;99.90
2999;DHT22;1509;51.964;7.628;2023-06-22T10:52:19;28.60;99.90
2999;DHT22;1509;51.964;7.628;2023-06-22T10:54:45;28.50;99.90
2999;DHT22;1509;51.964;7.628;2023-06-22T10:57:10;28.40;99.90
2999;DHT22;1509;51.964;7.628;2023-06-22T10:59:36;28.30;99.90
2999;DHT22;1509;51.964;7.628;2023-06-22T11:02:02;28.40;99.90
2999;DHT22;1509;51.964;7.628;2023-06-22T11:04:28;28.40;99.90
2999;DHT22;1509;51.964;7.628;2023-06-22T11:06:53;28.40;99.90
2999;DHT22;1509;51.964;7.628;2023-06-22T11:09:19;28.20;99.90
2999;DHT22;1509;51.964;7.628;2023-06-22T11:11:51;28.00;99.90
2999;DHT22;1509;51.964;7.628;2023-06-22T11:14:19;27.90;99.90
2999;DHT22;1509;51.964;7.628;2023-06-22T11:16:45;27.70;99.90
2999;DHT22;1509;51.964;7.628;2023-06-22T11:19:12;27.70;99.90
2999;DHT22;1509;51.964;7.628;2023-06-22T11:21:38;27.70;99.90
2999;DHT22;1509;51.964;7.628;2023-06-22T11:24:04;27.70;99.90
2999;DHT22;1509;51.964;7.628;2023-06-22T11:26:30;28.00;99.90
2999;DHT22;1509;51.964;7.628;2023-06-22T11:28:57;28.30;99.90
2999;DHT22;1509;51.964;7.628;2023-06-22T11:31:23;28.60;99.90
2999;DHT22;1509;51.964;7.628;2023-06-22T11:33:49;28.90;99.90
2999;DHT22;1509;51.964;7.628;2023-06-22T11:36:15;29.10;99.90
2999;DHT22;1509;51.964;7.628;2023-06-22T11:38:41;29.10;99.90
2999;DHT22;1509;51.964;7.628;2023-06-22T11:41:08;29.10;99.90
2999;DHT22;1509;51.964;7.628;2023-06-22T11:43:34;29.00;99.90
2999;DHT22;1509;51.964;7.628;2023-06-22T11:46:01;28.90;99.90
2999;DHT22;1509;51.964;7.628;2023-06-22T11:48:27;28.60;99.90
2999;DHT22;1509;51.964;7.628;2023-06-22T11:50:53;28.40;99.90
2999;DHT22;1509;51.964;7.628;2023-06-22T11:53:21;28.30;99.90
2999;DHT22;1509;51.964;7.628;2023-06-22T11:55:47;28.20;99.90
2999;DHT22;1509;51.964;7.628;2023-06-22T11:58:12;28.00;99.90
2999;DHT22;1509;51.964;7.628;2023-06-22T12:00:38;27.50;99.90
2999;DHT22;1509;51.964;7.628;2023-06-22T12:03:04;27.60;99.90
2999;DHT22;1509;51.964;7.628;2023-06-22T12:05:30;27.40;99.90
2999;DHT22;1509;51.964;7.628;2023-06-22T12:07:55;27.30;99.90
2999;DHT22;1509;51.964;7.628;2023-06-22T12:10:22;27.30;99.90
2999;DHT22;1509;51.964;7.628;2023-06-22T12:12:51;27.30;99.90
2999;DHT22;1509;51.964;7.628;2023-06-22T12:15:17;27.30;99.90
2999;DHT22;1509;51.964;7.628;2023-06-22T12:17:42;27.20;99.90
2999;DHT22;1509;51.964;7.628;2023-06-22T12:20:09;27.10;99.90
2999;DHT22;1509;51.964;7.628;2023-06-22T12:22:37;27.00;99.90
2999;DHT22;1509;51.964;7.628;2023-06-22T12:25:03;26.90;99.90
2999;DHT22;1509;51.964;7.628;2023-06-22T12:27:29;26.80;99.90
2999;DHT22;1509;51.964;7.628;2023-06-22T12:29:56;26.70;99.90
2999;DHT22;1509;51.964;7.628;2023-06-22T12:32:22;26.60;99.90
2999;DHT22;1509;51.964;7.628;2023-06-22T12:34:47;26.50;99.90
2999;DHT22;1509;51.964;7.628;2023-06-22T12:37:13;26.40;99.90
2999;DHT22;1509;51.964;7.628;2023-06-22T12:39:41;26.40;99.90
2999;DHT22;1509;51.964;7.628;2023-06-22T12:42:07;26.30;99.90
2999;DHT22;1509;51.964;7.628;2023-06-22T12:44:38;26.30;99.90
2999;DHT22;1509;51.964;7.628;2023-06-22T12:47:04;26.20;99.90
2999;DHT22;1509;51.964;7.628;2023-06-22T12:49:30;26.20;99.90
2999;DHT22;1509;51.964;7.628;2023-06-22T12:51:55;26.00;99.90
2999;DHT22;1509;51.964;7.628;2023-06-22T12:54:21;25.70;99.90
2999;DHT22;1509;51.964;7.628;2023-06-22T12:56:47;25.50;99.90
2999;DHT22;1509;51.964;7.628;2023-06-22T12:59:12;25.40;99.90
2999;DHT22;1509;51.964;7.628;2023-06-22T13:01:38;25.10;99.90
2999;DHT22;1509;51.964;7.628;2023-06-22T13:04:04;24.90;99.90
2999;DHT22;1509;51.964;7.628;2023-06-22T13:06:30;24.60;99.90
2999;DHT22;1509;51.964;7.628;2023-06-22T13:08:56;24.40;99.90
2999;DHT22;1509;51.964;7.628;2023-06-22T13:11:22;24.30;99.90
2999;DHT22;1509;51.964;7.628;2023-06-22T13:13:47;24.20;99.90
2999;DHT22;1509;51.964;7.628;2023-06-22T13:16:13;24.00;99.90
2999;DHT22;1509;51.964;7.628;2023-06-22T13:18:39;23.80;99.90
2999;DHT22;1509;51.964;7.628;2023-06-22T13:21:05;23.70;99.90
2999;DHT22;1509;51.964;7.628;2023-06-22T13:23:31;23.60;99.90
2999;DHT22;1509;51.964;7.628;2023-06-22T13:25:58;23.50;99.90
2999;DHT22;1509;51.964;7.628;2023-06-22T13:28:23;23.40;99.90
2999;DHT22;1509;51.964;7.628;2023-06-22T13:30:49;23.30;99.90
2999;DHT22;1509;51.964;7.628;2023-06-22T13:33:18;23.10;99.90
2999;DHT22;1509;51.964;7.628;2023-06-22T13:35:43;23.10;99.90
2999;DHT22;1509;51.964;7.628;2023-06-22T13:38:09;23.10;99.90
2999;DHT22;1509;51.964;7.628;2023-06-22T13:40:36;23.10;99.90
2999;DHT22;1509;51.964;7.628;2023-06-22T13:43:04;23.00;99.90
2999;DHT22;1509;51.964;7.628;2023-06-22T13:45:30;22.90;99.90
2999;DHT22;1509;51.964;7.628;2023-06-22T13:47:55;22.80;99.90
2999;DHT22;1509;51.964;7.628;2023-06-22T13:50:21;22.80;99.90
2999;DHT22;1509;51.964;7.628;2023-06-22T13:52:46;22.80;99.90
2999;DHT22;1509;51.964;7.628;2023-06-22T13:55:12;22.80;99.90
2999;DHT22;1509;51.964;7.628;2023-06-22T13:57:40;22.70;99.90
2999;DHT22;1509;51.964;7.628;2023-06-22T14:00:06;22.70;99.90
2999;DHT22;1509;51.964;7.628;2023-06-22T14:02:33;22.70;99.90
2999;DHT22;1509;51.964;7.628;2023-06-22T14:04:59;22.70;99.90
2999;DHT22;1509;51.964;7.628;2023-06-22T14:07:25;22.70;99.90
2999;DHT22;1509;51.964;7.628;2023-06-22T14:09:50;22.70;99.90
2999;DHT22;1509;51.964;7.628;2023-06-22T14:12:17;22.60;99.90
2999;DHT22;1509;51.964;7.628;2023-06-22T14:14:45;22.70;99.90
2999;DHT22;1509;51.964;7.628;2023-06-22T14:17:11;22.70;99.90
2999;DHT22;1509;51.964;7.628;2023-06-22T14:19:36;22.70;99.90
2999;DHT22;1509;51.964;7.628;2023-06-22T14:22:02;22.70;99.90
2999;DHT22;1509;51.964;7.628;2023-06-22T14:24:29;22.80;99.90
2999;DHT22;1509;51.964;7.628;2023-06-22T14:26:55;22.70;99.90
2999;DHT22;1509;51.964;7.628;2023-06-22T14:29:21;22.80;99.90
2999;DHT22;1509;51.964;7.628;2023-06-22T14:31:47;22.70;99.90
2999;DHT22;1509;51.964;7.628;2023-06-22T14:34:14;22.70;99.90
2999;DHT22;1509;51.964;7.628;2023-06-22T14:36:39;22.60;99.90
2999;DHT22;1509;51.964;7.628;2023-06-22T14:39:05;22.70;99.90
2999;DHT22;1509;51.964;7.628;2023-06-22T14:41:31;22.90;99.90
2999;DHT22;1509;51.964;7.628;2023-06-22T14:43:57;23.10;99.90
2999;DHT22;1509;51.964;7.628;2023-06-22T14:46:22;23.20;99.90
2999;DHT22;1509;51.964;7.628;2023-06-22T14:48:48;23.30;99.90
2999;DHT22;1509;51.964;7.628;2023-06-22T14:51:15;23.40;99.90
2999;DHT22;1509;51.964;7.628;2023-06-22T14:53:46;23.60;99.90
2999;DHT22;1509;51.964;7.628;2023-06-22T14:56:12;23.60;99.90
2999;DHT22;1509;51.964;7.628;2023-06-22T14:58:43;23.80;99.90
2999;DHT22;1509;51.964;7.628;2023-06-22T15:01:11;24.00;99.90
2999;DHT22;1509;51.964;7.628;2023-06-22T15:03:36;24.00;99.90
2999;DHT22;1509;51.964;7.628;2023-06-22T15:06:03;24.00;99.90
2999;DHT22;1509;51.964;7.628;2023-06-22T15:08:29;24.00;99.90
2999;DHT22;1509;51.964;7.628;2023-06-22T15:10:55;24.00;99.90
2999;DHT22;1509;51.964;7.628;2023-06-22T15:13:23;24.00;99.90
2999;DHT22;1509;51.964;7.628;2023-06-22T15:15:50;24.00;99.90
2999;DHT22;1509;51.964;7.628;2023-06-22T15:18:16;23.90;99.90
2999;DHT22;1509;51.964;7.628;2023-06-22T15:20:42;23.90;99.90
2999;DHT22;1509;51.964;7.628;2023-06-22T15:23:10;23.80;99.90
2999;DHT22;1509;51.964;7.628;2023-06-22T15:25:36;23.70;99.90
2999;DHT22;1509;51.964;7.628;2023-06-22T15:28:01;23.70;99.90
2999;DHT22;1509;51.964;7.628;2023-06-22T15:30:28;23.60;99.90
2999;DHT22;1509;51.964;7.628;2023-06-22T15:32:54;23.50;99.90
2999;DHT22;1509;51.964;7.628;2023-06-22T15:35:20;23.30;99.90
2999;DHT22;1509;51.964;7.628;2023-06-22T15:37:46;23.30;99.90
2999;DHT22;1509;51.964;7.628;2023-06-22T15:40:11;23.00;99.90
2999;DHT22;1509;51.964;7.628;2023-06-22T15:42:37;22.90;99.90
2999;DHT22;1509;51.964;7.628;2023-06-22T15:45:04;22.80;99.90
2999;DHT22;1509;51.964;7.628;2023-06-22T15:47:30;22.80;99.90
2999;DHT22;1509;51.964;7.628;2023-06-22T15:49:58;22.80;99.90
2999;DHT22;1509;51.964;7.628;2023-06-22T15:52:24;22.80;99.90
2999;DHT22;1509;51.964;7.628;2023-06-22T15:54:50;22.70;99.90
2999;DHT22;1509;51.964;7.628;2023-06-22T15:57:16;22.60;99.90
2999;DHT22;1509;51.964;7.628;2023-06-22T15:59:43;22.60;99.90
2999;DHT22;1509;51.964;7.628;2023-06-22T16:02:09;22.50;99.90